Potsdam, Minnesota
Current Conditions -  °F | °C
As of 5:33 AM on Tuesday 21 Oct 2014 (Local Time) from K9MN Reporting Station
Clear Clear  
Wind Chill: 40°   Ceiling: Unl
Heat Index: 40°   Visibility: 10mi
Dew Point: 35°   Wind: 0mph
Humidity: 85%   Direction: NA
Pressure: 30.15"   Gusts: NA
Location:  44.1501°N, 92.2609°W
Report Text: K9MN 211033Z AUTO 00000KT 10SM CLR 04/02 A3015 RMK AO1 T00430019
Loading
Personal Weather Stations






























Interactive Weather Map
Tropical Storm Tracking
New forecast layout! Learn more

10-Day Weather Forecast

Advertisements
Track Severe Weather on mobile